Time;durP1;ratioP1;P1;durP2;ratioP2;P2;SDS_P1;SDS_P2;PMS_P1;PMS_P2;Temp;Humidity;BMP_temperature;BMP_pressure;BME280_temperature;BME280_humidity;BME280_pressure;Samples;Min_cycle;Max_cycle;Signal;HPM_P1;HPM_P2
2022/03/29 00:01:58;;;;;;;44.88;32.85;;;15.90;79.30;;;;;;4975051;28;20046;-65
2022/03/29 00:04:24;;;;;;;47.53;34.30;;;16.00;78.70;;;;;;4974905;28;20077;-66
2022/03/29 00:06:49;;;;;;;46.08;33.60;;;15.90;78.60;;;;;;4974868;28;20030;-65
2022/03/29 00:09:15;;;;;;;45.38;33.10;;;15.90;78.70;;;;;;4974806;28;20027;-66
2022/03/29 00:11:41;;;;;;;45.78;33.70;;;15.90;78.80;;;;;;4975091;28;20031;-65
2022/03/29 00:14:07;;;;;;;48.83;33.88;;;15.90;78.80;;;;;;4975043;28;20027;-56
2022/03/29 00:16:33;;;;;;;45.42;31.45;;;15.90;79.00;;;;;;4974911;28;20070;-65
2022/03/29 00:18:59;;;;;;;52.30;33.45;;;15.80;79.20;;;;;;4974866;28;20137;-65
2022/03/29 00:21:24;;;;;;;43.08;32.45;;;15.80;79.10;;;;;;4974565;28;20512;-65
2022/03/29 00:23:51;;;;;;;46.05;31.92;;;15.80;79.10;;;;;;4974669;28;20034;-64
2022/03/29 00:26:16;;;;;;;45.72;31.83;;;15.80;79.20;;;;;;4974685;28;20031;-66
2022/03/29 00:28:42;;;;;;;46.67;30.75;;;15.80;79.30;;;;;;4974967;28;20373;-65
2022/03/29 00:31:11;;;;;;;42.22;31.00;;;15.80;79.20;;;;;;4974659;28;20082;-65
2022/03/29 00:33:37;;;;;;;44.55;31.77;;;15.80;79.20;;;;;;4974785;28;20014;-66
2022/03/29 00:36:03;;;;;;;40.75;28.75;;;15.80;79.10;;;;;;4974451;28;20027;-65
2022/03/29 00:38:28;;;;;;;44.72;31.73;;;15.80;79.10;;;;;;4974531;28;20110;-65
2022/03/29 00:40:54;;;;;;;46.20;31.80;;;15.80;79.20;;;;;;4974443;28;20054;-66
2022/03/29 00:43:20;;;;;;;41.15;30.58;;;15.80;79.20;;;;;;4974511;28;20031;-65
2022/03/29 00:45:45;;;;;;;44.47;31.08;;;15.80;79.10;;;;;;4974555;28;20361;-64
2022/03/29 00:48:13;;;;;;;40.83;29.20;;;15.80;79.30;;;;;;4974600;28;20035;-65
2022/03/29 00:50:39;;;;;;;46.25;31.10;;;15.80;79.20;;;;;;4974357;28;20011;-65
2022/03/29 00:53:06;;;;;;;44.72;32.17;;;15.80;79.30;;;;;;4974146;28;20173;-65
2022/03/29 00:55:32;;;;;;;41.47;29.90;;;15.80;79.30;;;;;;4974361;28;20038;-57
2022/03/29 00:57:58;;;;;;;43.63;32.63;;;15.80;79.30;;;;;;4973651;28;20027;-63
2022/03/29 01:00:24;;;;;;;43.10;30.67;;;15.80;79.30;;;;;;4974305;28;20039;-56
2022/03/29 01:02:49;;;;;;;45.58;31.80;;;15.70;79.30;;;;;;4974260;28;20048;-56
2022/03/29 01:05:15;;;;;;;43.05;30.98;;;15.70;79.50;;;;;;4974282;28;20488;-58
2022/03/29 01:07:41;;;;;;;44.67;31.52;;;15.70;79.60;;;;;;4973690;28;20070;-61
2022/03/29 01:10:07;;;;;;;45.50;32.15;;;15.70;79.60;;;;;;4957343;28;20050;-64
2022/03/29 01:12:34;;;;;;;48.78;31.45;;;15.70;79.60;;;;;;4974185;28;20026;-64
2022/03/29 01:15:04;;;;;;;42.17;29.27;;;15.70;79.70;;;;;;4974265;28;20019;-60
2022/03/29 01:17:39;;;;;;;47.80;32.33;;;15.60;79.80;;;;;;4973955;28;20051;-57
2022/03/29 01:20:22;;;;;;;46.67;31.50;;;15.60;79.90;;;;;;4973980;28;20058;-56
2022/03/29 01:22:49;;;;;;;45.03;32.33;;;15.60;80.00;;;;;;4973798;28;20030;-61
2022/03/29 01:25:20;;;;;;;42.65;31.35;;;15.60;79.90;;;;;;4974277;28;20027;-59
2022/03/29 01:27:49;;;;;;;47.28;31.13;;;15.60;79.80;;;;;;4973988;28;20373;-56
2022/03/29 01:30:16;;;;;;;40.90;30.33;;;15.60;79.90;;;;;;4974314;28;20019;-64
2022/03/29 01:32:45;;;;;;;45.78;33.63;;;15.50;80.00;;;;;;4974134;28;20035;-59
2022/03/29 01:35:11;;;;;;;49.75;31.40;;;15.50;80.20;;;;;;4974090;28;20026;-63
2022/03/29 01:37:37;;;;;;;46.72;31.38;;;15.50;80.20;;;;;;4973687;28;20046;-64
2022/03/29 01:40:12;;;;;;;41.75;30.20;;;15.50;80.80;;;;;;4974210;28;20480;-64
2022/03/29 01:42:38;;;;;;;41.28;30.45;;;15.50;80.10;;;;;;4973829;28;20018;-56
2022/03/29 01:45:04;;;;;;;47.03;31.75;;;15.50;80.10;;;;;;4974258;28;20106;-59
2022/03/29 01:47:30;;;;;;;42.08;30.33;;;15.50;80.20;;;;;;4973746;28;20093;-59
2022/03/29 01:49:55;;;;;;;43.88;30.35;;;15.50;80.30;;;;;;4974086;28;20476;-60
2022/03/29 01:52:21;;;;;;;42.75;30.48;;;15.50;80.40;;;;;;4973510;28;20531;-61
2022/03/29 01:54:47;;;;;;;47.75;31.00;;;15.50;80.50;;;;;;4973850;28;20034;-57
2022/03/29 01:57:13;;;;;;;42.70;30.52;;;15.50;80.50;;;;;;4973707;28;20031;-55
2022/03/29 02:02:23;;;;;;;43.03;29.20;;;15.40;80.50;;;;;;4973925;28;20065;-61
2022/03/29 02:04:48;;;;;;;43.63;30.45;;;15.40;80.50;;;;;;4973559;28;20392;-55
2022/03/29 02:07:16;;;;;;;42.53;29.42;;;15.40;80.60;;;;;;4973559;28;20035;-58
2022/03/29 02:09:42;;;;;;;39.22;28.35;;;15.40;80.50;;;;;;4976938;28;20047;-62
2022/03/29 02:12:09;;;;;;;40.58;29.25;;;15.40;80.60;;;;;;4977230;28;20031;-53
2022/03/29 02:14:34;;;;;;;42.72;29.67;;;15.40;80.70;;;;;;4977191;28;20030;-55
2022/03/29 02:17:01;;;;;;;41.03;28.30;;;15.40;80.70;;;;;;4977002;28;20487;-59
2022/03/29 02:19:27;;;;;;;39.20;28.70;;;15.40;80.70;;;;;;4976743;28;20480;-56
2022/03/29 02:21:52;;;;;;;40.10;27.67;;;15.40;80.70;;;;;;4977409;28;20033;-57
2022/03/29 02:24:18;;;;;;;39.25;27.88;;;15.40;80.70;;;;;;4976744;28;20030;-55
2022/03/29 02:26:43;;;;;;;44.90;28.58;;;15.40;80.60;;;;;;4977058;28;20073;-57
2022/03/29 02:29:09;;;;;;;39.25;26.80;;;15.40;80.60;;;;;;4976927;28;20058;-59
2022/03/29 02:31:35;;;;;;;39.40;27.48;;;15.40;80.70;;;;;;4977169;28;20039;-57
2022/03/29 02:34:02;;;;;;;41.47;26.25;;;15.40;80.60;;;;;;4976540;28;20026;-56
2022/03/29 02:36:28;;;;;;;38.78;26.75;;;15.40;80.70;;;;;;4959387;28;20366;-59
2022/03/29 02:38:53;;;;;;;39.47;25.08;;;15.40;80.60;;;;;;4976804;28;20027;-60
2022/03/29 02:41:19;;;;;;;38.25;26.00;;;15.30;80.50;;;;;;4976770;28;20050;-61
2022/03/29 02:43:44;;;;;;;39.25;26.17;;;15.30;80.60;;;;;;4976631;28;20034;-61
2022/03/29 02:46:10;;;;;;;38.88;25.60;;;15.30;80.60;;;;;;4976615;28;20026;-62
2022/03/29 02:48:36;;;;;;;35.55;24.77;;;15.30;80.60;;;;;;4976377;28;20027;-57
2022/03/29 02:51:01;;;;;;;39.90;25.23;;;15.30;80.50;;;;;;4976625;28;20046;-58
2022/03/29 02:53:27;;;;;;;36.45;25.50;;;15.30;80.50;;;;;;4976314;28;20029;-59
2022/03/29 02:55:52;;;;;;;39.65;24.83;;;15.30;80.50;;;;;;4976640;28;20023;-60
2022/03/29 02:58:18;;;;;;;32.53;22.77;;;15.30;80.30;;;;;;4976283;28;20035;-59
2022/03/29 03:00:44;;;;;;;36.75;24.63;;;15.30;80.20;;;;;;4976456;28;20109;-65
2022/03/29 03:03:09;;;;;;;34.92;23.25;;;15.30;80.00;;;;;;4976174;28;20031;-54
2022/03/29 03:05:35;;;;;;;35.67;24.52;;;15.30;80.00;;;;;;4976202;28;20432;-62
2022/03/29 03:08:02;;;;;;;36.80;22.95;;;15.30;80.00;;;;;;4976147;28;20042;-56
2022/03/29 03:10:28;;;;;;;34.95;22.50;;;15.20;79.90;;;;;;4982582;28;20150;-59
2022/03/29 03:12:53;;;;;;;35.50;21.88;;;15.20;80.10;;;;;;4989159;28;20034;-57
2022/03/29 03:15:21;;;;;;;36.10;23.25;;;15.10;80.30;;;;;;4990032;28;20034;-62
2022/03/29 03:17:49;;;;;;;33.28;22.25;;;15.10;80.20;;;;;;4994235;28;20022;-58
2022/03/29 03:20:15;;;;;;;36.03;21.60;;;15.10;80.10;;;;;;4992797;28;20088;-56
2022/03/29 03:22:42;;;;;;;31.60;21.80;;;15.10;80.10;;;;;;4995224;28;20543;-59
2022/03/29 03:25:08;;;;;;;32.58;21.33;;;15.10;80.00;;;;;;4994447;28;20027;-62
2022/03/29 03:27:36;;;;;;;33.38;21.83;;;15.10;79.70;;;;;;4995159;28;20545;-57
2022/03/29 03:30:03;;;;;;;31.92;20.85;;;15.10;79.60;;;;;;4978281;28;20034;-62
2022/03/29 03:32:28;;;;;;;33.08;20.60;;;15.10;79.50;;;;;;4994914;28;20034;-56
2022/03/29 03:34:54;;;;;;;35.25;20.45;;;15.10;79.30;;;;;;4995164;28;20085;-59
2022/03/29 03:37:20;;;;;;;37.95;20.08;;;15.10;79.20;;;;;;4995038;28;20031;-58
2022/03/29 03:39:45;;;;;;;33.20;19.77;;;15.10;78.60;;;;;;4995077;28;20105;-61
2022/03/29 03:42:11;;;;;;;29.75;19.58;;;15.30;77.50;;;;;;4995037;28;20031;-61
2022/03/29 03:44:37;;;;;;;27.00;19.30;;;15.40;76.80;;;;;;4994897;28;20095;-63
2022/03/29 03:47:04;;;;;;;34.10;19.70;;;15.50;76.50;;;;;;4994733;28;20059;-63
2022/03/29 03:49:29;;;;;;;30.85;19.58;;;15.50;76.30;;;;;;4994724;28;20015;-60
2022/03/29 03:51:55;;;;;;;28.73;18.15;;;15.50;76.30;;;;;;4994844;28;20033;-59
2022/03/29 03:54:21;;;;;;;24.98;18.55;;;15.50;76.30;;;;;;4994788;28;20033;-59
2022/03/29 03:56:47;;;;;;;36.78;19.48;;;15.50;76.30;;;;;;4995033;28;20048;-63
2022/03/29 03:59:13;;;;;;;27.13;18.40;;;15.40;76.20;;;;;;4994516;28;20041;-61
2022/03/29 04:01:38;;;;;;;33.45;19.88;;;15.50;76.10;;;;;;4994220;28;20031;-58
2022/03/29 04:04:04;;;;;;;29.45;18.02;;;15.50;75.70;;;;;;4993268;28;20476;-59
2022/03/29 04:06:30;;;;;;;28.35;18.55;;;15.50;75.70;;;;;;4994230;28;20027;-59
2022/03/29 04:08:55;;;;;;;29.80;18.20;;;15.50;75.50;;;;;;4994569;28;20656;-65
2022/03/29 04:11:21;;;;;;;27.27;18.42;;;15.50;75.20;;;;;;4994084;28;20050;-60
2022/03/29 04:13:47;;;;;;;26.10;17.83;;;15.50;75.00;;;;;;4994173;28;20022;-58
2022/03/29 04:16:12;;;;;;;25.63;18.33;;;15.40;75.40;;;;;;4993847;28;20084;-59
2022/03/29 04:18:38;;;;;;;30.00;18.77;;;15.40;75.40;;;;;;4994147;28;20034;-65
2022/03/29 04:21:09;;;;;;;26.80;18.33;;;15.40;75.20;;;;;;4976435;28;20018;-57
2022/03/29 04:23:35;;;;;;;27.63;18.88;;;15.40;75.50;;;;;;4994165;28;20369;-61
2022/03/29 04:26:01;;;;;;;26.35;19.00;;;15.40;75.70;;;;;;4994387;28;20034;-60
2022/03/29 04:28:27;;;;;;;27.50;18.73;;;15.40;75.90;;;;;;4994150;28;20040;-62
2022/03/29 04:30:55;;;;;;;28.17;18.30;;;15.30;76.00;;;;;;4993442;28;20117;-56
2022/03/29 04:33:21;;;;;;;30.83;18.15;;;15.40;76.00;;;;;;4994083;28;20490;-63
2022/03/29 04:35:47;;;;;;;29.42;19.08;;;15.40;75.90;;;;;;4993844;28;20056;-62
2022/03/29 04:38:13;;;;;;;30.75;19.58;;;15.40;75.40;;;;;;4993867;28;20031;-58
2022/03/29 04:40:38;;;;;;;28.70;19.35;;;15.40;75.20;;;;;;4993990;28;20042;-59
2022/03/29 04:43:04;;;;;;;28.42;18.05;;;15.40;74.80;;;;;;4993752;28;20029;-65
2022/03/29 04:45:29;;;;;;;32.95;18.35;;;15.40;75.00;;;;;;4993533;28;20070;-64
2022/03/29 04:47:55;;;;;;;34.40;20.02;;;15.40;75.00;;;;;;4993851;28;20502;-63
2022/03/29 04:50:21;;;;;;;29.08;18.10;;;15.40;75.20;;;;;;4993871;28;20108;-61
2022/03/29 04:52:47;;;;;;;33.83;19.20;;;15.30;75.50;;;;;;4994021;28;20105;-62
2022/03/29 04:55:17;;;;;;;25.17;17.85;;;15.30;75.40;;;;;;4994003;28;20022;-64
2022/03/29 04:57:44;;;;;;;28.27;18.05;;;15.30;75.50;;;;;;4993527;28;20022;-60
2022/03/29 05:00:12;;;;;;;28.98;18.98;;;15.40;75.20;;;;;;4993016;28;20015;-56
2022/03/29 05:02:39;;;;;;;32.92;18.92;;;15.40;75.00;;;;;;4988058;28;20034;-53
2022/03/29 05:05:05;;;;;;;30.30;19.55;;;15.40;75.00;;;;;;4985618;28;20101;-65
2022/03/29 05:07:31;;;;;;;29.48;19.30;;;15.40;74.90;;;;;;4990519;28;20038;-56
2022/03/29 05:09:56;;;;;;;28.65;19.08;;;15.40;74.80;;;;;;4993207;28;20034;-58
2022/03/29 05:12:22;;;;;;;30.65;20.50;;;15.30;74.90;;;;;;4992587;28;20405;-61
2022/03/29 05:14:48;;;;;;;34.13;19.98;;;15.30;75.00;;;;;;4993316;28;20097;-65
2022/03/29 05:17:13;;;;;;;27.05;19.00;;;15.30;75.10;;;;;;4983836;28;20061;-54
2022/03/29 05:19:39;;;;;;;25.33;18.92;;;15.30;75.00;;;;;;4985759;28;20037;-54
2022/03/29 05:22:05;;;;;;;27.08;18.38;;;15.30;75.20;;;;;;4988485;28;20538;-54
2022/03/29 05:24:30;;;;;;;30.17;19.60;;;15.30;75.40;;;;;;4991979;28;20027;-61
2022/03/29 05:26:56;;;;;;;29.42;19.52;;;15.30;75.00;;;;;;4986328;28;20511;-62
2022/03/29 05:29:22;;;;;;;32.90;20.77;;;15.30;75.10;;;;;;4987141;28;20448;-63
2022/03/29 05:31:48;;;;;;;30.00;19.88;;;15.30;74.90;;;;;;4990858;28;20022;-65
2022/03/29 05:34:14;;;;;;;29.38;19.48;;;15.30;74.90;;;;;;4983836;28;20606;-59
2022/03/29 05:36:44;;;;;;;25.40;20.08;;;15.30;74.90;;;;;;4991544;28;20466;-64
2022/03/29 05:39:10;;;;;;;26.35;19.98;;;15.30;74.80;;;;;;4986974;28;20022;-53
2022/03/29 05:41:35;;;;;;;31.48;18.77;;;15.20;74.90;;;;;;4991421;28;20030;-64
2022/03/29 05:44:01;;;;;;;27.23;19.15;;;15.20;75.80;;;;;;4990795;28;20033;-55
2022/03/29 05:49:11;;;;;;;24.45;17.95;;;15.00;76.80;;;;;;4989883;28;20526;-53
2022/03/29 05:51:37;;;;;;;28.52;18.25;;;14.90;77.00;;;;;;4994538;28;20049;-59
2022/03/29 05:54:04;;;;;;;29.02;18.38;;;14.90;77.30;;;;;;4992163;28;20085;-57
2022/03/29 05:56:30;;;;;;;27.65;18.67;;;14.90;77.40;;;;;;4989378;28;20411;-57
2022/03/29 05:58:56;;;;;;;24.40;18.58;;;14.90;77.30;;;;;;4992633;28;20548;-65
2022/03/29 06:01:21;;;;;;;33.72;21.08;;;14.90;77.40;;;;;;4996747;28;20105;-64
2022/03/29 06:03:47;;;;;;;33.22;22.58;;;14.80;77.60;;;;;;4991708;28;20428;-63
2022/03/29 06:06:13;;;;;;;36.78;26.00;;;14.80;77.80;;;;;;4993685;28;20109;-64
2022/03/29 06:08:39;;;;;;;37.80;25.23;;;14.80;78.80;;;;;;4989650;28;20037;-63
2022/03/29 06:11:04;;;;;;;39.15;25.40;;;14.80;78.70;;;;;;4988118;28;20442;-62
2022/03/29 06:13:31;;;;;;;33.80;24.45;;;14.90;78.30;;;;;;4992074;28;20037;-60
2022/03/29 06:15:56;;;;;;;49.95;23.48;;;14.90;77.80;;;;;;4995848;28;20494;-65
2022/03/29 06:18:22;;;;;;;37.10;22.73;;;14.90;77.70;;;;;;4996278;28;20030;-63
2022/03/29 06:20:49;;;;;;;30.05;21.33;;;14.90;77.70;;;;;;4992613;28;20495;-64
2022/03/29 06:23:14;;;;;;;31.95;22.38;;;14.80;77.80;;;;;;4976117;28;20445;-65
2022/03/29 06:25:40;;;;;;;36.05;21.73;;;14.70;78.00;;;;;;4975822;28;20524;-59
2022/03/29 06:28:06;;;;;;;34.65;21.95;;;14.70;78.70;;;;;;4989902;28;20549;-63
2022/03/29 06:30:32;;;;;;;30.73;22.13;;;14.70;78.20;;;;;;4990611;28;20026;-65
2022/03/29 06:32:58;;;;;;;36.75;22.40;;;14.80;78.30;;;;;;5000405;28;20029;-63
2022/03/29 06:35:25;;;;;;;33.90;22.13;;;14.70;78.20;;;;;;4996277;28;20394;-61
2022/03/29 06:37:53;;;;;;;33.13;20.25;;;14.70;78.30;;;;;;4978565;28;20077;-57
2022/03/29 06:40:21;;;;;;;31.30;22.60;;;14.60;78.50;;;;;;4978262;28;20524;-63
2022/03/29 06:42:47;;;;;;;33.13;20.70;;;14.70;78.40;;;;;;4994601;28;20061;-63
2022/03/29 06:45:13;;;;;;;29.13;20.67;;;14.80;78.40;;;;;;4991930;28;20475;-61
2022/03/29 06:47:39;;;;;;;34.05;21.30;;;14.80;78.30;;;;;;4989714;28;20035;-63
2022/03/29 06:50:05;;;;;;;28.08;19.42;;;14.90;78.30;;;;;;4992314;28;20224;-64
2022/03/29 06:52:39;;;;;;;34.97;20.15;;;14.90;78.00;;;;;;4995109;28;20018;-64
2022/03/29 06:55:06;;;;;;;29.10;21.10;;;14.80;78.20;;;;;;4995285;28;20027;-60
2022/03/29 06:57:32;;;;;;;32.97;21.38;;;14.80;78.10;;;;;;4993971;28;20030;-65
2022/03/29 06:59:57;;;;;;;31.83;20.15;;;14.80;78.40;;;;;;4994861;28;20045;-64
2022/03/29 07:02:24;;;;;;;28.75;21.08;;;14.90;78.50;;;;;;4994760;28;20053;-57
2022/03/29 07:04:50;;;;;;;32.75;19.75;;;14.90;78.50;;;;;;4994564;28;20106;-63
2022/03/29 07:07:16;;;;;;;32.67;20.10;;;14.90;78.60;;;;;;4994517;28;20085;-56
2022/03/29 07:12:28;;;;;;;29.55;19.92;;;15.00;78.50;;;;;;4981662;28;20042;-63
2022/03/29 07:14:54;;;;;;;33.72;20.35;;;14.90;78.40;;;;;;4987501;28;20021;-65
2022/03/29 07:17:19;;;;;;;37.30;22.63;;;14.90;78.60;;;;;;4994749;28;20384;-65
2022/03/29 07:19:46;;;;;;;32.10;20.92;;;14.90;78.70;;;;;;4994428;28;20505;-65
2022/03/29 07:22:11;;;;;;;33.75;21.63;;;14.90;79.00;;;;;;4993874;28;20080;-64
2022/03/29 07:24:38;;;;;;;32.05;21.05;;;14.90;79.20;;;;;;4970423;28;20430;-65
2022/03/29 07:27:03;;;;;;;33.58;21.63;;;14.90;79.10;;;;;;4990785;28;20435;-65
2022/03/29 07:29:29;;;;;;;36.35;20.75;;;14.90;79.30;;;;;;4984336;28;20041;-65
2022/03/29 07:31:55;;;;;;;26.80;17.50;;;14.90;79.30;;;;;;4999388;28;20061;-59
2022/03/29 07:34:21;;;;;;;32.70;20.98;;;15.00;79.80;;;;;;4994793;28;20041;-65
2022/03/29 07:36:48;;;;;;;30.35;21.65;;;15.00;79.00;;;;;;4985209;28;20447;-65
2022/03/29 07:39:14;;;;;;;30.55;23.33;;;15.00;78.80;;;;;;4980709;28;20062;-64
2022/03/29 07:41:40;;;;;;;35.55;24.25;;;15.00;78.80;;;;;;4991313;28;20047;-59
2022/03/29 07:44:06;;;;;;;33.95;23.27;;;14.90;78.70;;;;;;5001994;28;20463;-59
2022/03/29 07:46:31;;;;;;;34.90;22.83;;;14.80;79.40;;;;;;4995620;28;20031;-57
2022/03/29 07:48:57;;;;;;;38.47;24.13;;;14.80;79.30;;;;;;4994490;28;20022;-54
2022/03/29 07:51:23;;;;;;;34.55;22.25;;;14.80;79.60;;;;;;4979708;28;20460;-62
2022/03/29 07:53:48;;;;;;;32.00;22.00;;;14.90;79.70;;;;;;4984343;28;20452;-65
2022/03/29 07:56:14;;;;;;;31.50;23.25;;;15.00;79.60;;;;;;4990257;28;20031;-57
2022/03/29 07:58:40;;;;;;;29.48;22.42;;;15.00;79.60;;;;;;4975081;28;20027;-63
2022/03/29 08:01:06;;;;;;;34.50;23.27;;;15.10;79.90;;;;;;4985640;28;20027;-61
2022/03/29 08:03:33;;;;;;;31.98;22.85;;;15.10;79.70;;;;;;4984670;28;20129;-64
2022/03/29 08:06:00;;;;;;;34.78;23.75;;;15.10;80.40;;;;;;4963135;28;20035;-62
2022/03/29 08:08:26;;;;;;;32.17;24.83;;;15.10;80.10;;;;;;4985521;28;20031;-62
2022/03/29 08:10:51;;;;;;;33.03;25.15;;;15.20;80.10;;;;;;4992922;28;20092;-64
2022/03/29 08:13:18;;;;;;;34.95;24.70;;;15.20;80.30;;;;;;4991895;28;20030;-62
2022/03/29 08:15:45;;;;;;;38.10;25.45;;;15.20;79.70;;;;;;4976453;28;20023;-64
2022/03/29 08:18:11;;;;;;;36.33;24.75;;;15.20;79.90;;;;;;4978330;28;20031;-62
2022/03/29 08:20:38;;;;;;;36.08;25.92;;;15.20;80.10;;;;;;4975108;28;20031;-64
2022/03/29 08:23:05;;;;;;;40.05;28.13;;;15.20;80.10;;;;;;4991615;28;20091;-64
2022/03/29 08:25:32;;;;;;;37.75;26.83;;;15.20;80.20;;;;;;4992187;28;20027;-65
2022/03/29 08:28:00;;;;;;;37.63;27.00;;;15.20;80.30;;;;;;4992663;28;20026;-65
2022/03/29 08:30:27;;;;;;;33.80;27.27;;;15.30;80.50;;;;;;4987230;28;20019;-65
2022/03/29 08:32:54;;;;;;;36.40;25.30;;;15.20;80.40;;;;;;4985651;28;20034;-65
2022/03/29 08:35:19;;;;;;;37.40;27.13;;;15.30;80.60;;;;;;4987379;28;20113;-64
2022/03/29 08:37:48;;;;;;;35.75;27.88;;;15.20;80.60;;;;;;4993482;28;20428;-65
2022/03/29 08:40:22;;;;;;;35.38;27.42;;;15.30;80.60;;;;;;4990996;28;20057;-63
2022/03/29 08:42:54;;;;;;;38.60;27.23;;;15.30;80.20;;;;;;4992966;28;20038;-65
2022/03/29 08:45:25;;;;;;;37.53;27.05;;;15.30;80.00;;;;;;4992821;28;20026;-65
2022/03/29 08:47:52;;;;;;;41.03;28.40;;;15.30;80.00;;;;;;4986482;28;20072;-64
2022/03/29 08:50:17;;;;;;;48.83;27.55;;;15.30;79.70;;;;;;4984912;28;20033;-66
2022/03/29 08:52:44;;;;;;;37.67;28.15;;;15.30;79.80;;;;;;4988875;28;20030;-63
2022/03/29 08:55:10;;;;;;;37.70;28.10;;;15.40;79.50;;;;;;4977522;28;20101;-64
2022/03/29 08:57:37;;;;;;;40.28;26.85;;;15.40;79.60;;;;;;4992435;28;20795;-66
2022/03/29 09:00:05;;;;;;;37.65;27.45;;;15.40;79.60;;;;;;4972878;28;20046;-55
2022/03/29 09:02:35;;;;;;;44.22;29.65;;;15.50;79.20;;;;;;4976530;28;20027;-64
2022/03/29 09:05:07;;;;;;;49.15;31.30;;;15.50;79.10;;;;;;4989100;28;20057;-66
2022/03/29 09:08:08;;;;;;;48.83;31.20;;;15.50;79.00;;;;;;4991080;28;20050;-66
2022/03/29 09:10:50;;;;;;;37.13;29.80;;;15.50;79.10;;;;;;4925488;28;20038;-58
2022/03/29 09:13:30;;;;;;;45.17;31.98;;;15.60;79.20;;;;;;4991399;28;20472;-65
2022/03/29 09:15:58;;;;;;;37.30;30.98;;;15.60;78.80;;;;;;4973385;28;20070;-58
2022/03/29 09:18:24;;;;;;;51.63;32.03;;;15.50;78.80;;;;;;4973765;28;20373;-66
2022/03/29 09:21:12;;;;;;;45.20;31.23;;;15.60;79.30;;;;;;4976252;28;20027;-67
2022/03/29 09:23:39;;;;;;;43.75;32.05;;;15.60;78.80;;;;;;4985406;28;20041;-65
2022/03/29 09:26:06;;;;;;;56.03;33.33;;;15.70;79.00;;;;;;4990010;28;20443;-66
2022/03/29 09:28:34;;;;;;;48.38;32.40;;;15.70;78.80;;;;;;4977076;28;20107;-66
2022/03/29 09:31:00;;;;;;;45.05;32.65;;;15.70;78.30;;;;;;4977789;28;20420;-66
2022/03/29 09:33:36;;;;;;;41.33;26.05;;;15.70;78.60;;;;;;4977525;28;20073;-66
2022/03/29 09:36:12;;;;;;;44.28;32.88;;;15.70;79.00;;;;;;4982406;28;20030;-65
2022/03/29 09:38:41;;;;;;;40.17;34.22;;;15.80;78.60;;;;;;4996873;28;20077;-67
2022/03/29 09:41:32;;;;;;;42.05;31.55;;;15.70;78.20;;;;;;4984348;28;20053;-66
2022/03/29 09:44:09;;;;;;;42.13;33.15;;;15.80;78.60;;;;;;4980064;28;20022;-66
2022/03/29 09:46:54;;;;;;;46.30;34.30;;;15.80;78.50;;;;;;4997099;28;20031;-65
2022/03/29 09:49:21;;;;;;;40.92;34.13;;;15.90;77.80;;;;;;4995804;28;20463;-67
2022/03/29 09:51:47;;;;;;;41.80;31.73;;;15.90;77.70;;;;;;4995996;28;20030;-65
2022/03/29 09:54:13;;;;;;;39.15;32.70;;;15.80;77.50;;;;;;4995283;28;20026;-66
2022/03/29 09:56:39;;;;;;;45.75;34.85;;;15.90;77.70;;;;;;4986263;28;20032;-66
2022/03/29 09:59:10;;;;;;;37.88;32.00;;;15.90;77.30;;;;;;4982995;28;20094;-67
2022/03/29 10:01:57;;;;;;;48.40;32.28;;;15.90;77.70;;;;;;4995044;28;20031;-57
2022/03/29 10:04:25;;;;;;;40.83;32.20;;;16.00;77.60;;;;;;4991418;28;20037;-53
2022/03/29 10:06:54;;;;;;;43.53;31.88;;;16.00;77.00;;;;;;4984169;28;20407;-59
2022/03/29 10:09:30;;;;;;;49.95;32.33;;;16.00;77.10;;;;;;4977124;28;20473;-55
2022/03/29 10:12:00;;;;;;;45.53;33.15;;;16.10;76.80;;;;;;4992549;28;20050;-56
2022/03/29 10:14:27;;;;;;;41.47;32.08;;;16.10;76.80;;;;;;4995082;28;20064;-58
2022/03/29 10:16:54;;;;;;;38.28;33.17;;;16.10;76.80;;;;;;4990782;28;20699;-65
2022/03/29 10:19:21;;;;;;;41.90;34.40;;;16.10;76.50;;;;;;4993450;28;20105;-60
2022/03/29 10:21:46;;;;;;;48.30;36.25;;;16.10;76.60;;;;;;4986056;28;20109;-65
2022/03/29 10:24:16;;;;;;;46.22;38.45;;;16.10;76.80;;;;;;4993054;28;21184;-58
2022/03/29 10:26:47;;;;;;;41.35;36.45;;;16.10;76.80;;;;;;4985147;28;20052;-59
2022/03/29 10:29:12;;;;;;;42.45;34.85;;;16.10;76.70;;;;;;4986312;28;20023;-59
2022/03/29 10:31:48;;;;;;;41.58;35.45;;;16.10;76.00;;;;;;4993989;28;20041;-60
2022/03/29 10:34:26;;;;;;;44.53;36.10;;;16.00;76.40;;;;;;4988130;28;20064;-59
2022/03/29 10:37:09;;;;;;;44.95;35.50;;;15.90;76.50;;;;;;4975308;28;20027;-64
2022/03/29 10:39:47;;;;;;;40.15;33.38;;;16.00;76.50;;;;;;4989496;28;20035;-65
2022/03/29 10:42:36;;;;;;;45.10;33.30;;;16.00;76.20;;;;;;4993005;28;20019;-59
2022/03/29 10:45:18;;;;;;;43.15;33.53;;;15.90;76.00;;;;;;4994398;28;20039;-64
2022/03/29 10:48:06;;;;;;;43.85;34.63;;;16.00;76.10;;;;;;4990951;28;20046;-65
2022/03/29 10:50:47;;;;;;;41.78;33.72;;;15.80;75.90;;;;;;4958949;28;20037;-64
2022/03/29 10:53:23;;;;;;;42.13;33.22;;;15.80;76.60;;;;;;4985772;28;20034;-59
2022/03/29 10:56:12;;;;;;;42.15;33.80;;;15.90;76.80;;;;;;4975336;28;20026;-59
2022/03/29 10:59:02;;;;;;;43.70;34.53;;;16.00;76.90;;;;;;4990027;28;20030;-58
2022/03/29 11:01:32;;;;;;;39.03;33.47;;;16.00;76.10;;;;;;4994452;28;20038;-66
2022/03/29 11:04:28;;;;;;;42.63;33.65;;;16.10;77.30;;;;;;4994413;28;20105;-60
2022/03/29 11:07:06;;;;;;;41.58;34.00;;;16.10;76.00;;;;;;4985404;28;20500;-60
2022/03/29 11:09:34;;;;;;;45.97;34.80;;;16.10;75.50;;;;;;4990127;28;20026;-63
2022/03/29 11:11:59;;;;;;;44.15;34.53;;;16.10;75.80;;;;;;4987696;28;20109;-63
2022/03/29 11:14:28;;;;;;;53.50;36.80;;;16.20;75.70;;;;;;4992202;28;20110;-56
2022/03/29 11:17:16;;;;;;;55.38;36.17;;;16.20;75.90;;;;;;4988012;28;20035;-59
2022/03/29 11:19:47;;;;;;;46.10;35.20;;;16.20;76.00;;;;;;4986639;28;20053;-62
2022/03/29 11:22:41;;;;;;;44.30;34.85;;;16.30;75.60;;;;;;4993594;28;20468;-65
2022/03/29 11:25:09;;;;;;;43.92;34.88;;;16.30;75.80;;;;;;4987256;28;20484;-66
2022/03/29 11:27:36;;;;;;;50.10;34.95;;;16.30;74.90;;;;;;4990350;28;20041;-61
2022/03/29 11:30:10;;;;;;;36.22;32.17;;;16.30;75.10;;;;;;4988786;28;20088;-66
2022/03/29 11:32:39;;;;;;;44.28;34.88;;;16.40;74.80;;;;;;4994905;28;20030;-66
2022/03/29 11:35:07;;;;;;;55.58;34.00;;;16.40;74.70;;;;;;4999278;28;20390;-61
2022/03/29 11:37:40;;;;;;;51.60;34.00;;;16.40;74.70;;;;;;4989690;28;20496;-64
2022/03/29 11:40:08;;;;;;;45.25;36.75;;;16.40;74.50;;;;;;4975938;28;20134;-59
2022/03/29 11:42:49;;;;;;;45.38;35.65;;;16.50;74.40;;;;;;4995327;28;20487;-57
2022/03/29 11:45:16;;;;;;;42.38;34.95;;;16.50;74.40;;;;;;4990549;28;20037;-63
2022/03/29 11:47:56;;;;;;;48.35;38.20;;;16.50;74.30;;;;;;4990937;28;20042;-59
2022/03/29 11:50:32;;;;;;;44.15;36.38;;;16.50;74.30;;;;;;4993540;28;20029;-61
2022/03/29 11:52:58;;;;;;;42.67;36.08;;;16.50;74.50;;;;;;4992436;28;20042;-61
2022/03/29 11:55:25;;;;;;;43.97;37.03;;;16.50;74.50;;;;;;4990578;28;20018;-60
2022/03/29 11:57:52;;;;;;;45.40;37.13;;;16.60;74.00;;;;;;4997347;28;20485;-55
2022/03/29 12:00:27;;;;;;;42.85;35.28;;;16.60;74.20;;;;;;4997965;28;20041;-58
2022/03/29 12:02:53;;;;;;;44.42;36.70;;;16.60;73.70;;;;;;4993677;28;20121;-64
2022/03/29 12:05:27;;;;;;;43.22;37.40;;;16.70;73.80;;;;;;4992751;28;20023;-63
2022/03/29 12:08:02;;;;;;;41.70;35.78;;;16.70;73.90;;;;;;4993181;28;20054;-60
2022/03/29 12:10:34;;;;;;;45.72;38.28;;;16.70;73.30;;;;;;4993450;28;20030;-65
2022/03/29 12:12:59;;;;;;;43.03;34.83;;;16.60;73.20;;;;;;4992798;28;20374;-61
2022/03/29 12:15:25;;;;;;;43.08;34.30;;;16.70;73.60;;;;;;4991957;28;20529;-64
2022/03/29 12:20:46;;;;;;;45.78;35.15;;;16.70;72.80;;;;;;4987592;28;20595;-61
2022/03/29 12:23:23;;;;;;;46.53;35.15;;;16.70;72.30;;;;;;4983455;28;20023;-66
2022/03/29 12:25:49;;;;;;;46.00;36.13;;;16.70;72.80;;;;;;4973353;28;20069;-58
2022/03/29 12:28:19;;;;;;;50.63;36.47;;;16.80;72.80;;;;;;4985715;28;20149;-61
2022/03/29 12:30:45;;;;;;;49.97;37.67;;;16.80;72.50;;;;;;4993713;28;20058;-61
2022/03/29 12:33:11;;;;;;;49.05;36.72;;;16.70;72.30;;;;;;4985188;28;20030;-62
2022/03/29 12:35:36;;;;;;;47.15;35.90;;;16.70;72.70;;;;;;4991607;28;20077;-65
2022/03/29 12:38:04;;;;;;;45.08;35.67;;;16.70;72.90;;;;;;4974318;28;20031;-57
2022/03/29 12:40:30;;;;;;;42.40;33.83;;;16.80;72.60;;;;;;4974393;28;20487;-64
2022/03/29 12:43:06;;;;;;;48.15;36.33;;;16.80;72.30;;;;;;4979178;28;20121;-64
2022/03/29 12:45:37;;;;;;;41.13;34.78;;;16.80;72.10;;;;;;4974858;28;20023;-65